createdAt,value
2022-08-18T00:00:37.746Z,4.35
2022-08-18T00:03:56.734Z,4.30
2022-08-18T00:07:00.928Z,4.22
2022-08-18T00:10:03.166Z,4.72
2022-08-18T00:13:04.437Z,4.18
2022-08-18T00:16:05.874Z,4.38
2022-08-18T00:19:09.395Z,4.35
2022-08-18T00:22:14.833Z,4.38
2022-08-18T00:25:17.722Z,4.15
2022-08-18T00:28:19.363Z,3.85
2022-08-18T00:31:26.895Z,4.07
2022-08-18T00:34:28.171Z,4.07
2022-08-18T00:37:33.705Z,3.72
2022-08-18T00:40:41.195Z,3.70
2022-08-18T00:43:46.794Z,4.13
2022-08-18T00:46:48.078Z,3.58
2022-08-18T00:49:51.852Z,3.35
2022-08-18T00:52:55.696Z,3.72
2022-08-18T00:55:59.922Z,4.00
2022-08-18T00:59:14.388Z,3.15
2022-08-18T01:02:35.921Z,3.60
2022-08-18T01:05:43.280Z,3.08
2022-08-18T01:08:44.650Z,3.45
2022-08-18T01:11:47.655Z,3.85
2022-08-18T01:14:48.991Z,3.10
2022-08-18T01:18:09.313Z,3.30
2022-08-18T01:21:40.710Z,3.25
2022-08-18T01:25:00.537Z,3.22
2022-08-18T01:28:03.319Z,3.30
2022-08-18T01:31:05.249Z,3.20
2022-08-18T01:34:07.622Z,3.00
2022-08-18T01:37:10.085Z,3.20
2022-08-18T01:41:22.676Z,2.90
2022-08-18T01:43:34.663Z,3.15
2022-08-18T01:46:35.969Z,3.30
2022-08-18T01:49:37.937Z,3.60
2022-08-18T01:52:39.683Z,3.00
2022-08-18T01:55:45.138Z,3.08
2022-08-18T01:58:47.755Z,2.83
2022-08-18T02:01:53.374Z,2.85
2022-08-18T02:04:56.504Z,2.70
2022-08-18T02:07:57.868Z,2.75
2022-08-18T02:10:59.282Z,3.13
2022-08-18T02:14:00.615Z,2.70
2022-08-18T02:17:03.040Z,2.67
2022-08-18T02:20:04.618Z,3.13
2022-08-18T02:23:05.918Z,2.75
2022-08-18T02:26:08.624Z,2.80
2022-08-18T02:29:09.940Z,2.67
2022-08-18T02:32:11.252Z,3.25
2022-08-18T02:35:12.781Z,3.30
2022-08-18T02:38:14.106Z,3.08
2022-08-18T02:41:20.241Z,2.88
2022-08-18T02:44:21.575Z,3.20
2022-08-18T02:47:23.009Z,3.03
2022-08-18T02:50:25.050Z,3.10
2022-08-18T02:53:27.278Z,2.80
2022-08-18T02:56:32.774Z,3.30
2022-08-18T02:59:42.206Z,2.45
2022-08-18T03:02:51.300Z,2.67
2022-08-18T03:08:54.243Z,2.50
2022-08-18T03:11:55.907Z,2.60
2022-08-18T03:14:57.207Z,2.88
2022-08-18T03:17:58.554Z,2.92
2022-08-18T03:21:10.054Z,2.83
2022-08-18T03:24:12.297Z,3.28
2022-08-18T03:27:13.632Z,3.03
2022-08-18T03:30:14.949Z,3.00
2022-08-18T03:33:16.265Z,3.25
2022-08-18T03:36:18.974Z,2.85
2022-08-18T03:39:23.587Z,2.95
2022-08-18T03:42:25.035Z,2.92
2022-08-18T03:45:31.815Z,2.80
2022-08-18T03:48:33.577Z,3.25
2022-08-18T03:51:35.024Z,2.90
2022-08-18T03:54:38.854Z,2.78
2022-08-18T03:57:40.178Z,2.90
2022-08-18T04:00:41.594Z,2.97
2022-08-18T04:03:43.629Z,3.03
2022-08-18T04:06:50.310Z,2.88
2022-08-18T04:09:51.615Z,3.35
2022-08-18T04:12:52.936Z,3.03
2022-08-18T04:15:54.245Z,2.58
2022-08-18T04:19:00.326Z,3.03
2022-08-18T04:22:05.131Z,3.20
2022-08-18T04:25:09.313Z,3.20
2022-08-18T04:28:10.598Z,3.38
2022-08-18T04:31:13.137Z,3.63
2022-08-18T04:34:14.858Z,3.13
2022-08-18T04:37:16.836Z,3.83
2022-08-18T04:40:22.831Z,3.25
2022-08-18T04:43:26.221Z,3.45
2022-08-18T04:46:27.923Z,3.10
2022-08-18T04:49:30.269Z,3.22
2022-08-18T04:52:50.079Z,3.40
2022-08-18T04:55:52.493Z,3.40
2022-08-18T04:59:00.228Z,3.13
2022-08-18T05:02:01.594Z,3.35
2022-08-18T05:05:04.050Z,3.30
2022-08-18T05:08:05.727Z,3.22
2022-08-18T05:11:07.182Z,3.15
2022-08-18T05:14:08.700Z,3.50
2022-08-18T05:17:10.321Z,3.15
2022-08-18T05:20:11.761Z,3.60
2022-08-18T05:23:13.058Z,3.08
2022-08-18T05:26:15.370Z,3.60
2022-08-18T05:29:18.799Z,3.42
2022-08-18T05:32:38.385Z,3.40
2022-08-18T05:35:54.425Z,3.38
2022-08-18T05:39:21.766Z,3.35
2022-08-18T05:42:25.630Z,3.05
2022-08-18T05:45:27.249Z,3.55
2022-08-18T05:48:28.541Z,3.35
2022-08-18T05:51:33.389Z,3.35
2022-08-18T05:55:01.609Z,3.38
2022-08-18T05:58:09.503Z,3.42
2022-08-18T06:01:36.959Z,3.55
2022-08-18T06:04:44.239Z,3.60
2022-08-18T06:07:51.324Z,3.20
2022-08-18T06:10:52.698Z,4.15
2022-08-18T06:13:57.831Z,3.70
2022-08-18T06:17:14.819Z,3.63
2022-08-18T06:20:18.941Z,3.80
2022-08-18T06:23:20.260Z,3.65
2022-08-18T06:26:32.736Z,3.70
2022-08-18T06:29:53.405Z,3.58
2022-08-18T06:33:02.426Z,3.70
2022-08-18T06:36:10.406Z,3.85
2022-08-18T06:39:35.220Z,3.67
2022-08-18T06:42:40.289Z,3.67
2022-08-18T06:45:44.849Z,3.80
2022-08-18T06:48:49.170Z,4.13
2022-08-18T06:51:50.522Z,4.00
2022-08-18T06:54:53.570Z,4.15
2022-08-18T06:57:57.707Z,3.70
2022-08-18T07:01:05.169Z,4.20
2022-08-18T07:04:06.563Z,4.30
2022-08-18T07:07:14.632Z,4.07
2022-08-18T07:10:16.103Z,4.15
2022-08-18T07:13:22.437Z,4.05
2022-08-18T07:16:47.014Z,3.83
2022-08-18T07:19:54.227Z,4.35
2022-08-18T07:22:55.788Z,4.03
2022-08-18T07:26:06.635Z,3.80
2022-08-18T07:29:15.607Z,4.60
2022-08-18T07:32:21.845Z,4.07
2022-08-18T07:35:37.499Z,3.75
2022-08-18T07:38:44.039Z,4.32
2022-08-18T07:42:04.579Z,4.65
2022-08-18T07:45:12.445Z,3.95
2022-08-18T07:52:14.610Z,3.90
2022-08-18T07:55:33.309Z,3.35
2022-08-18T07:58:37.995Z,4.10
2022-08-18T08:01:52.112Z,4.00
2022-08-18T08:04:53.545Z,3.63
2022-08-18T08:07:59.614Z,3.72
2022-08-18T08:11:12.968Z,4.05
2022-08-18T08:14:14.268Z,4.10
2022-08-18T08:17:18.392Z,3.97
2022-08-18T08:20:32.771Z,3.80
2022-08-18T08:23:44.951Z,4.63
2022-08-18T08:26:55.446Z,4.85
2022-08-18T08:30:14.452Z,4.15
2022-08-18T08:33:28.295Z,4.00
2022-08-18T08:36:34.972Z,4.05
2022-08-18T08:39:39.690Z,4.50
2022-08-18T08:42:50.284Z,4.10
2022-08-18T08:46:03.335Z,4.28
2022-08-18T08:49:11.469Z,4.20
2022-08-18T08:52:12.845Z,4.15
2022-08-18T08:55:17.207Z,4.53
2022-08-18T08:58:40.397Z,4.82
2022-08-18T09:01:45.405Z,4.57
2022-08-18T09:04:54.194Z,4.43
2022-08-18T09:08:16.691Z,4.45
2022-08-18T09:11:27.603Z,4.10
2022-08-18T09:14:47.750Z,5.55
2022-08-18T09:17:50.611Z,4.35
2022-08-18T09:21:13.583Z,4.53
2022-08-18T09:24:24.170Z,4.68
2022-08-18T09:28:08.825Z,5.43
2022-08-18T09:31:03.850Z,4.93
2022-08-18T09:34:25.776Z,4.40
2022-08-18T09:41:02.486Z,4.75
2022-08-18T09:44:21.763Z,5.25
2022-08-18T09:47:28.311Z,4.95
2022-08-18T09:50:38.597Z,5.32
2022-08-18T09:53:46.324Z,6.60
2022-08-18T09:56:54.381Z,5.40
2022-08-18T10:00:02.879Z,5.05
2022-08-18T10:03:11.494Z,5.07
2022-08-18T10:06:17.802Z,5.57
2022-08-18T10:09:36.622Z,6.00
2022-08-18T10:12:52.459Z,5.28
2022-08-18T10:19:42.517Z,6.65
2022-08-18T10:22:46.614Z,5.88
2022-08-18T10:25:48.410Z,5.50
2022-08-18T10:28:54.660Z,6.35
2022-08-18T10:31:57.675Z,6.50
2022-08-18T10:34:59.854Z,5.95
2022-08-18T10:38:02.579Z,6.30
2022-08-18T10:41:15.625Z,5.85
2022-08-18T10:47:42.597Z,5.90
2022-08-18T10:50:50.553Z,5.78
2022-08-18T10:53:59.604Z,6.57
2022-08-18T10:57:06.371Z,5.65
2022-08-18T11:00:13.911Z,6.18
2022-08-18T11:03:50.367Z,6.50
2022-08-18T11:06:47.326Z,6.30
2022-08-18T11:09:57.265Z,6.57
2022-08-18T11:13:24.365Z,6.05
2022-08-18T11:16:30.427Z,6.82
2022-08-18T11:19:36.652Z,6.68
2022-08-18T11:22:52.205Z,7.13
2022-08-18T11:25:53.701Z,6.57
2022-08-18T11:28:55.808Z,7.32
2022-08-18T11:32:17.922Z,6.57
2022-08-18T11:35:20.783Z,6.53
2022-08-18T11:38:23.256Z,6.80
2022-08-18T11:41:33.264Z,6.78
2022-08-18T11:44:48.651Z,6.60
2022-08-18T11:48:08.776Z,7.95
2022-08-18T11:51:18.057Z,7.43
2022-08-18T11:54:33.523Z,7.05
2022-08-18T12:01:03.208Z,7.80
2022-08-18T12:04:15.441Z,7.10
2022-08-18T12:07:26.682Z,7.35
2022-08-18T12:10:29.244Z,7.82
2022-08-18T12:13:31.353Z,9.18
2022-08-18T12:19:34.951Z,8.35
2022-08-18T12:22:37.307Z,8.50
2022-08-18T12:25:38.859Z,8.75
2022-08-18T12:28:40.356Z,7.78
2022-08-18T12:31:42.478Z,8.70
2022-08-18T12:34:49.794Z,9.63
2022-08-18T12:41:18.637Z,9.77
2022-08-18T12:44:27.131Z,9.43
2022-08-18T12:54:12.652Z,10.48
2022-08-18T12:57:50.510Z,11.90
2022-08-18T13:03:45.467Z,10.32
2022-08-18T13:07:07.987Z,10.95
2022-08-18T13:10:09.981Z,9.82
2022-08-18T13:13:31.293Z,9.82
2022-08-18T13:16:53.424Z,11.30
2022-08-18T13:19:56.080Z,10.10
2022-08-18T13:22:57.493Z,9.80
2022-08-18T13:26:02.166Z,10.52
2022-08-18T13:29:05.062Z,10.60
2022-08-18T13:32:11.689Z,9.70
2022-08-18T13:35:13.766Z,9.50
2022-08-18T13:38:22.085Z,9.40
2022-08-18T13:44:33.854Z,9.88
2022-08-18T13:47:38.232Z,8.90
2022-08-18T13:50:40.304Z,8.18
2022-08-18T13:53:51.110Z,8.20
2022-08-18T14:00:01.529Z,7.88
2022-08-18T14:03:03.307Z,6.20
2022-08-18T14:06:06.981Z,6.80
2022-08-18T14:09:19.555Z,6.20
2022-08-18T14:12:24.569Z,5.45
2022-08-18T14:15:30.782Z,6.68
2022-08-18T14:18:32.743Z,5.85
2022-08-18T14:21:55.540Z,6.07
2022-08-18T14:25:15.714Z,5.45
2022-08-18T14:28:24.715Z,6.43
2022-08-18T14:31:26.793Z,5.97
2022-08-18T14:34:29.271Z,6.07
2022-08-18T14:37:30.861Z,5.55
2022-08-18T14:40:36.337Z,5.82
2022-08-18T14:44:11.455Z,5.25
2022-08-18T14:47:07.213Z,5.68
2022-08-18T14:50:12.727Z,5.43
2022-08-18T14:53:20.072Z,5.20
2022-08-18T14:56:21.432Z,5.05
2022-08-18T14:59:25.047Z,5.13
2022-08-18T15:02:27.019Z,4.75
2022-08-18T15:05:33.832Z,4.40
2022-08-18T15:08:36.559Z,5.15
2022-08-18T15:15:02.044Z,4.18
2022-08-18T15:18:05.131Z,5.20
2022-08-18T15:21:38.490Z,4.70
2022-08-18T15:24:59.440Z,4.90
2022-08-18T15:28:01.243Z,4.13
2022-08-18T15:31:49.626Z,4.90
2022-08-18T15:34:27.472Z,4.32
2022-08-18T15:37:28.996Z,4.50
2022-08-18T15:40:35.521Z,4.03
2022-08-18T15:43:40.049Z,4.07
2022-08-18T15:46:53.209Z,4.05
2022-08-18T15:49:55.177Z,4.20
2022-08-18T15:52:58.736Z,4.53
2022-08-18T15:56:04.118Z,4.65
2022-08-18T15:59:07.272Z,4.72
2022-08-18T16:02:11.842Z,5.10
2022-08-18T16:05:14.101Z,5.03
2022-08-18T16:08:17.813Z,4.75
2022-08-18T16:11:24.592Z,4.88
2022-08-18T16:14:31.984Z,4.88
2022-08-18T16:17:34.184Z,5.50
2022-08-18T16:20:36.322Z,5.05
2022-08-18T16:23:38.397Z,4.85
2022-08-18T16:26:39.735Z,4.25
2022-08-18T16:29:41.062Z,4.15
2022-08-18T16:32:42.509Z,3.35
2022-08-18T16:35:45.374Z,3.78
2022-08-18T16:38:47.192Z,3.83
2022-08-18T16:41:48.573Z,3.83
2022-08-18T16:44:50.034Z,4.15
2022-08-18T16:47:51.527Z,3.72
2022-08-18T16:50:53.053Z,3.67
2022-08-18T16:53:54.493Z,4.07
2022-08-18T16:56:57.572Z,3.90
2022-08-18T17:00:17.709Z,4.45
2022-08-18T17:03:37.944Z,3.70
2022-08-18T17:06:47.087Z,3.63
2022-08-18T17:09:48.959Z,3.50
2022-08-18T17:12:50.313Z,4.07
2022-08-18T17:15:52.019Z,3.95
2022-08-18T17:18:54.073Z,4.43
2022-08-18T17:21:55.598Z,4.07
2022-08-18T17:24:59.776Z,5.40
2022-08-18T17:28:02.009Z,4.13
2022-08-18T17:31:07.155Z,4.57
2022-08-18T17:34:11.784Z,4.38
2022-08-18T17:37:15.145Z,4.30
2022-08-18T17:40:18.015Z,5.13
2022-08-18T17:43:20.774Z,5.35
2022-08-18T17:46:27.913Z,5.22
2022-08-18T17:49:54.228Z,5.80
2022-08-18T17:53:09.700Z,6.05
2022-08-18T17:56:23.340Z,5.30
2022-08-18T17:59:46.237Z,5.07
2022-08-18T18:02:53.126Z,5.50
2022-08-18T18:05:58.398Z,5.38
2022-08-18T18:09:01.435Z,5.28
2022-08-18T18:15:41.004Z,5.60
2022-08-18T18:22:00.522Z,5.35
2022-08-18T18:25:06.542Z,5.60
2022-08-18T18:28:24.036Z,4.72
2022-08-18T18:31:27.643Z,5.05
2022-08-18T18:37:33.076Z,5.07
2022-08-18T18:40:34.818Z,5.53
2022-08-18T18:43:38.214Z,5.45
2022-08-18T18:46:41.275Z,5.22
2022-08-18T18:49:49.802Z,6.22
2022-08-18T18:52:57.141Z,5.00
2022-08-18T18:56:11.454Z,4.78
2022-08-18T18:59:16.983Z,5.00
2022-08-18T19:02:34.521Z,5.43
2022-08-18T19:05:49.423Z,5.35
2022-08-18T19:08:54.195Z,5.03
2022-08-18T19:12:03.497Z,5.57
2022-08-18T19:15:08.999Z,5.93
2022-08-18T19:18:18.939Z,5.55
2022-08-18T19:22:03.352Z,5.93
2022-08-18T19:24:59.824Z,5.63
2022-08-18T19:28:12.107Z,5.78
2022-08-18T19:31:23.195Z,5.68
2022-08-18T19:34:30.150Z,5.47
2022-08-18T19:37:56.039Z,5.30
2022-08-18T19:41:06.178Z,5.35
2022-08-18T19:47:13.524Z,5.72
2022-08-18T19:50:14.834Z,5.78
2022-08-18T19:53:28.189Z,6.30
2022-08-18T19:56:47.889Z,5.40
2022-08-18T19:59:49.243Z,6.72
2022-08-18T20:02:57.140Z,4.88
2022-08-18T20:05:58.430Z,4.63
2022-08-18T20:09:19.741Z,5.13
2022-08-18T20:12:39.231Z,5.35
2022-08-18T20:15:57.638Z,5.38
2022-08-18T20:18:59.940Z,5.47
2022-08-18T20:22:02.488Z,5.07
2022-08-18T20:25:08.232Z,5.72
2022-08-18T20:28:20.492Z,6.03
2022-08-18T20:31:22.592Z,5.72
2022-08-18T20:34:25.822Z,5.97
2022-08-18T20:37:30.319Z,5.47
2022-08-18T20:40:43.070Z,6.07
2022-08-18T20:43:44.451Z,5.70
2022-08-18T20:46:56.182Z,5.78
2022-08-18T20:50:12.750Z,5.25
2022-08-18T20:53:35.049Z,5.40
2022-08-18T20:56:44.251Z,5.95
2022-08-18T20:59:52.835Z,5.78
2022-08-18T21:02:55.969Z,5.53
2022-08-18T21:05:58.322Z,5.93
2022-08-18T21:08:59.732Z,5.13
2022-08-18T21:12:01.124Z,6.25
2022-08-18T21:15:07.675Z,5.40
2022-08-18T21:18:17.333Z,5.63
2022-08-18T21:21:27.181Z,5.65
2022-08-18T21:24:31.592Z,5.25
2022-08-18T21:27:36.015Z,5.60
2022-08-18T21:30:38.010Z,5.55
2022-08-18T21:33:39.771Z,6.70
2022-08-18T21:36:54.587Z,5.20
2022-08-18T21:39:57.615Z,6.15
2022-08-18T21:42:59.394Z,6.38
2022-08-18T21:46:01.461Z,6.30
2022-08-18T21:49:03.703Z,7.20
2022-08-18T21:52:05.394Z,6.05
2022-08-18T21:55:17.487Z,5.35
2022-08-18T21:58:32.765Z,5.80
2022-08-18T22:01:37.015Z,6.45
2022-08-18T22:04:45.234Z,5.20
2022-08-18T22:07:47.775Z,5.70
2022-08-18T22:11:59.377Z,6.57
2022-08-18T22:14:55.187Z,5.80
2022-08-18T22:17:57.086Z,5.95
2022-08-18T22:21:00.159Z,5.90
2022-08-18T22:24:19.827Z,6.15
2022-08-18T22:27:22.375Z,5.78
2022-08-18T22:30:23.681Z,5.63
2022-08-18T22:33:25.115Z,6.53
2022-08-18T22:36:27.580Z,6.28
2022-08-18T22:39:30.583Z,5.43
2022-08-18T22:42:33.422Z,5.78
2022-08-18T22:45:34.860Z,5.85
2022-08-18T22:48:37.046Z,6.18
2022-08-18T22:51:38.862Z,6.07
2022-08-18T22:54:40.318Z,5.78
2022-08-18T22:57:44.817Z,5.88
2022-08-18T23:00:48.446Z,5.95
2022-08-18T23:03:49.744Z,5.85
2022-08-18T23:06:52.472Z,5.60
2022-08-18T23:09:53.926Z,5.50
2022-08-18T23:12:55.274Z,5.20
2022-08-18T23:16:12.816Z,5.57
2022-08-18T23:19:20.155Z,6.47
2022-08-18T23:22:21.443Z,5.53
2022-08-18T23:25:22.790Z,6.20
2022-08-18T23:28:24.683Z,5.68
2022-08-18T23:31:25.989Z,5.50
2022-08-18T23:34:27.426Z,6.10
2022-08-18T23:37:28.814Z,5.70
2022-08-18T23:40:30.466Z,7.40
2022-08-18T23:43:31.810Z,6.35
2022-08-18T23:46:33.765Z,6.10
2022-08-18T23:49:36.430Z,6.82
2022-08-18T23:52:38.347Z,6.00
2022-08-18T23:55:39.657Z,6.55
2022-08-18T23:58:40.956Z,7.25
